Iblea — A8JR2 — position and weather

sailwx.info

Track history (hours):
 
Tides and Currents Weather Stations Pressure Air Temp Water Temp Dewpoint Dewpoint Depression Visibility Wind Speed Wind Dir Waves Ship Positions

Iblea

Last reported at 2017-Nov-17 08:08 UTC. Time now 2017-Nov-18 04:43 UTC.
Position N 37°31' E 000°04'.

Length 240 m; draft 8 m.

Type: Ship. MMSI: 636091121.

Date/timePositionNaut miles runAvg speedWind from/ knotsBaromVisibWave heightAir tempDewpointWater temp
2017-Nov-17 08:08N 37°31' E 000°04'212.3
2017-Nov-17 07:59N 37°30' E 000°01'612.3
2017-Nov-17 07:30N 37°30' W 000°06'612.5
2017-Nov-17 06:59N 37°30' W 000°14'612.5
2017-Nov-17 06:31N 37°29' W 000°22'612.7
2017-Nov-17 06:00N 37°29' W 000°30'612.7
2017-Nov-17 05:30N 37°29' W 000°38'611.5
2017-Nov-17 05:01N 37°28' W 000°45'510.5
2017-Nov-17 04:31N 37°28' W 000°52'6 8.3
2017-Nov-17 03:51N 37°31' W 000°58'4 8.5
2017-Nov-17 03:25N 37°34' W 000°60'0 0.0
2017-Nov-15 10:08N 37°34' W 000°60'3 3.5
2017-Nov-15 09:22N 37°32' W 001°03'1 0.9
2017-Nov-15 08:45N 37°32' W 001°02'0 1.0
2017-Nov-15 08:23N 37°32' W 001°02'1 1.6
2017-Nov-15 07:59N 37°31' W 001°02'220 9.2
2017-Nov-14 08:04N 36°01' W 005°12'113.7
2017-Nov-14 08:00N 36°01' W 005°13'713.8
2017-Nov-14 07:31N 35°59' W 005°22'713.9
2017-Nov-14 07:00N 35°57' W 005°30'  
Track history (hours):
 
Tides and Currents Weather Stations Pressure Air Temp Water Temp Dewpoint Dewpoint Depression Visibility Wind Speed Wind Dir Waves Ship Positions

Iblea

Last reported at 2017-Nov-17 08:08 UTC. Time now 2017-Nov-18 04:43 UTC.
Position N 37°31' E 000°04'.

Length 240 m; draft 8 m.

Type: Ship. MMSI: 636091121.

Date/timePositionNaut miles runAvg speedWind from/ knotsBaromVisibWave heightAir tempDewpointWater temp
2017-Nov-17 08:08N 37°31' E 000°04'212.3
2017-Nov-17 07:59N 37°30' E 000°01'612.3
2017-Nov-17 07:30N 37°30' W 000°06'612.5
2017-Nov-17 06:59N 37°30' W 000°14'612.5
2017-Nov-17 06:31N 37°29' W 000°22'612.7
2017-Nov-17 06:00N 37°29' W 000°30'612.7
2017-Nov-17 05:30N 37°29' W 000°38'611.5
2017-Nov-17 05:01N 37°28' W 000°45'510.5
2017-Nov-17 04:31N 37°28' W 000°52'6 8.3
2017-Nov-17 03:51N 37°31' W 000°58'4 8.5
2017-Nov-17 03:25N 37°34' W 000°60'0 0.0
2017-Nov-15 10:08N 37°34' W 000°60'3 3.5
2017-Nov-15 09:22N 37°32' W 001°03'1 0.9
2017-Nov-15 08:45N 37°32' W 001°02'0 1.0
2017-Nov-15 08:23N 37°32' W 001°02'1 1.6
2017-Nov-15 07:59N 37°31' W 001°02'220 9.2
2017-Nov-14 08:04N 36°01' W 005°12'113.7
2017-Nov-14 08:00N 36°01' W 005°13'713.8
2017-Nov-14 07:31N 35°59' W 005°22'713.9
2017-Nov-14 07:00N 35°57' W 005°30'  

Dump ship's entire track history